sensor_id;sensor_type;location;lat;lon;timestamp;temperature;humidity
18266;DHT22;9259;48.194;16.322;2022-08-19T00:00:41;25.00;99.90
18266;DHT22;9259;48.194;16.322;2022-08-19T00:03:09;23.00;99.90
18266;DHT22;9259;48.194;16.322;2022-08-19T00:05:37;23.00;99.90
18266;DHT22;9259;48.194;16.322;2022-08-19T00:08:05;23.10;99.90
18266;DHT22;9259;48.194;16.322;2022-08-19T00:10:33;23.00;99.90
18266;DHT22;9259;48.194;16.322;2022-08-19T00:13:01;23.00;99.90
18266;DHT22;9259;48.194;16.322;2022-08-19T00:15:31;23.00;99.90
18266;DHT22;9259;48.194;16.322;2022-08-19T00:17:59;23.10;99.90
18266;DHT22;9259;48.194;16.322;2022-08-19T00:20:27;23.10;99.90
18266;DHT22;9259;48.194;16.322;2022-08-19T00:22:55;23.10;99.90
18266;DHT22;9259;48.194;16.322;2022-08-19T00:25:26;23.10;99.90
18266;DHT22;9259;48.194;16.322;2022-08-19T00:27:54;23.10;99.90
18266;DHT22;9259;48.194;16.322;2022-08-19T00:30:22;23.00;99.90
18266;DHT22;9259;48.194;16.322;2022-08-19T00:32:51;22.90;99.90
18266;DHT22;9259;48.194;16.322;2022-08-19T00:35:20;23.00;99.90
18266;DHT22;9259;48.194;16.322;2022-08-19T00:37:49;22.90;99.90
18266;DHT22;9259;48.194;16.322;2022-08-19T00:40:17;22.90;99.90
18266;DHT22;9259;48.194;16.322;2022-08-19T00:42:46;23.00;99.90
18266;DHT22;9259;48.194;16.322;2022-08-19T00:45:17;23.00;99.90
18266;DHT22;9259;48.194;16.322;2022-08-19T00:47:48;23.00;99.90
18266;DHT22;9259;48.194;16.322;2022-08-19T00:50:20;23.00;99.90
18266;DHT22;9259;48.194;16.322;2022-08-19T00:52:50;23.00;99.90
18266;DHT22;9259;48.194;16.322;2022-08-19T00:55:23;22.90;99.90
18266;DHT22;9259;48.194;16.322;2022-08-19T00:57:57;22.80;99.90
18266;DHT22;9259;48.194;16.322;2022-08-19T01:00:29;22.70;99.90
18266;DHT22;9259;48.194;16.322;2022-08-19T01:02:58;22.70;99.90
18266;DHT22;9259;48.194;16.322;2022-08-19T01:05:28;22.70;99.90
18266;DHT22;9259;48.194;16.322;2022-08-19T01:07:58;22.80;99.90
18266;DHT22;9259;48.194;16.322;2022-08-19T01:10:29;22.90;99.90
18266;DHT22;9259;48.194;16.322;2022-08-19T01:12:59;22.90;99.90
18266;DHT22;9259;48.194;16.322;2022-08-19T01:15:31;22.90;99.90
18266;DHT22;9259;48.194;16.322;2022-08-19T01:18:07;22.90;99.90
18266;DHT22;9259;48.194;16.322;2022-08-19T01:20:36;23.00;99.90
18266;DHT22;9259;48.194;16.322;2022-08-19T01:23:05;22.90;99.90
18266;DHT22;9259;48.194;16.322;2022-08-19T01:25:40;22.90;99.90
18266;DHT22;9259;48.194;16.322;2022-08-19T01:28:16;22.90;99.90
18266;DHT22;9259;48.194;16.322;2022-08-19T01:30:46;22.80;99.90
18266;DHT22;9259;48.194;16.322;2022-08-19T01:33:14;22.80;99.90
18266;DHT22;9259;48.194;16.322;2022-08-19T01:35:42;22.70;99.90
18266;DHT22;9259;48.194;16.322;2022-08-19T01:38:20;22.70;99.90
18266;DHT22;9259;48.194;16.322;2022-08-19T01:40:50;22.70;99.90
18266;DHT22;9259;48.194;16.322;2022-08-19T01:43:19;22.70;99.90
18266;DHT22;9259;48.194;16.322;2022-08-19T01:45:47;22.70;99.90
18266;DHT22;9259;48.194;16.322;2022-08-19T01:48:15;22.70;99.90
18266;DHT22;9259;48.194;16.322;2022-08-19T01:50:43;22.80;99.90
18266;DHT22;9259;48.194;16.322;2022-08-19T01:53:12;22.80;99.90
18266;DHT22;9259;48.194;16.322;2022-08-19T01:55:42;22.70;99.90
18266;DHT22;9259;48.194;16.322;2022-08-19T01:58:18;22.60;99.90
18266;DHT22;9259;48.194;16.322;2022-08-19T02:00:47;22.60;99.90
18266;DHT22;9259;48.194;16.322;2022-08-19T02:03:16;22.70;99.90
18266;DHT22;9259;48.194;16.322;2022-08-19T02:05:44;22.60;99.90
18266;DHT22;9259;48.194;16.322;2022-08-19T02:08:14;22.70;99.90
18266;DHT22;9259;48.194;16.322;2022-08-19T02:10:43;22.60;99.90
18266;DHT22;9259;48.194;16.322;2022-08-19T02:13:12;22.70;99.90
18266;DHT22;9259;48.194;16.322;2022-08-19T02:15:41;22.60;99.90
18266;DHT22;9259;48.194;16.322;2022-08-19T02:18:09;22.60;99.90
18266;DHT22;9259;48.194;16.322;2022-08-19T02:20:38;22.60;99.90
18266;DHT22;9259;48.194;16.322;2022-08-19T02:23:07;22.60;99.90
18266;DHT22;9259;48.194;16.322;2022-08-19T02:25:36;22.70;99.90
18266;DHT22;9259;48.194;16.322;2022-08-19T02:28:05;22.70;99.90
18266;DHT22;9259;48.194;16.322;2022-08-19T02:30:33;22.80;99.90
18266;DHT22;9259;48.194;16.322;2022-08-19T02:33:01;22.80;99.90
18266;DHT22;9259;48.194;16.322;2022-08-19T02:35:29;22.80;99.90
18266;DHT22;9259;48.194;16.322;2022-08-19T02:37:57;22.70;99.90
18266;DHT22;9259;48.194;16.322;2022-08-19T02:40:50;22.60;99.90
18266;DHT22;9259;48.194;16.322;2022-08-19T02:43:19;22.70;99.90
18266;DHT22;9259;48.194;16.322;2022-08-19T02:45:47;22.70;99.90
18266;DHT22;9259;48.194;16.322;2022-08-19T02:48:16;22.70;99.90
18266;DHT22;9259;48.194;16.322;2022-08-19T02:50:45;22.80;99.90
18266;DHT22;9259;48.194;16.322;2022-08-19T02:53:14;22.80;99.90
18266;DHT22;9259;48.194;16.322;2022-08-19T02:55:43;22.80;99.90
18266;DHT22;9259;48.194;16.322;2022-08-19T02:58:13;22.80;99.90
18266;DHT22;9259;48.194;16.322;2022-08-19T03:00:44;22.90;99.90
18266;DHT22;9259;48.194;16.322;2022-08-19T03:03:12;22.90;99.90
18266;DHT22;9259;48.194;16.322;2022-08-19T03:05:41;22.90;99.90
18266;DHT22;9259;48.194;16.322;2022-08-19T03:08:09;22.90;99.90
18266;DHT22;9259;48.194;16.322;2022-08-19T03:10:41;22.90;99.90
18266;DHT22;9259;48.194;16.322;2022-08-19T03:13:15;22.90;99.90
18266;DHT22;9259;48.194;16.322;2022-08-19T03:15:46;22.90;99.90
18266;DHT22;9259;48.194;16.322;2022-08-19T03:18:15;22.90;99.90
18266;DHT22;9259;48.194;16.322;2022-08-19T03:20:43;22.80;99.90
18266;DHT22;9259;48.194;16.322;2022-08-19T03:23:12;22.80;99.90
18266;DHT22;9259;48.194;16.322;2022-08-19T03:25:44;22.80;99.90
18266;DHT22;9259;48.194;16.322;2022-08-19T03:28:15;22.90;99.90
18266;DHT22;9259;48.194;16.322;2022-08-19T03:30:55;22.90;99.90
18266;DHT22;9259;48.194;16.322;2022-08-19T03:33:29;23.00;99.90
18266;DHT22;9259;48.194;16.322;2022-08-19T03:36:02;23.00;99.90
18266;DHT22;9259;48.194;16.322;2022-08-19T03:38:37;23.00;99.90
18266;DHT22;9259;48.194;16.322;2022-08-19T03:41:07;22.90;99.90
18266;DHT22;9259;48.194;16.322;2022-08-19T03:43:39;22.80;99.90
18266;DHT22;9259;48.194;16.322;2022-08-19T03:46:10;22.90;99.90
18266;DHT22;9259;48.194;16.322;2022-08-19T03:48:40;22.80;99.90
18266;DHT22;9259;48.194;16.322;2022-08-19T03:51:15;22.80;99.90
18266;DHT22;9259;48.194;16.322;2022-08-19T03:53:46;22.80;99.90
18266;DHT22;9259;48.194;16.322;2022-08-19T03:56:14;22.90;99.90
18266;DHT22;9259;48.194;16.322;2022-08-19T03:58:44;22.80;99.90
18266;DHT22;9259;48.194;16.322;2022-08-19T04:01:15;22.80;99.90
18266;DHT22;9259;48.194;16.322;2022-08-19T04:03:45;22.70;99.90
18266;DHT22;9259;48.194;16.322;2022-08-19T04:06:15;22.80;99.90
18266;DHT22;9259;48.194;16.322;2022-08-19T04:08:51;22.80;99.90
18266;DHT22;9259;48.194;16.322;2022-08-19T04:11:22;22.90;99.90
18266;DHT22;9259;48.194;16.322;2022-08-19T04:13:53;22.90;99.90
18266;DHT22;9259;48.194;16.322;2022-08-19T04:16:26;22.90;99.90
18266;DHT22;9259;48.194;16.322;2022-08-19T04:18:55;23.00;99.90
18266;DHT22;9259;48.194;16.322;2022-08-19T04:21:24;22.90;99.90
18266;DHT22;9259;48.194;16.322;2022-08-19T04:23:54;22.80;99.90
18266;DHT22;9259;48.194;16.322;2022-08-19T04:26:25;22.80;99.90
18266;DHT22;9259;48.194;16.322;2022-08-19T04:28:59;22.80;99.90
18266;DHT22;9259;48.194;16.322;2022-08-19T04:31:30;22.80;99.90
18266;DHT22;9259;48.194;16.322;2022-08-19T04:34:04;22.70;99.90
18266;DHT22;9259;48.194;16.322;2022-08-19T04:36:35;22.80;99.90
18266;DHT22;9259;48.194;16.322;2022-08-19T04:39:07;22.90;99.90
18266;DHT22;9259;48.194;16.322;2022-08-19T04:41:36;23.00;99.90
18266;DHT22;9259;48.194;16.322;2022-08-19T04:44:23;23.10;99.90
18266;DHT22;9259;48.194;16.322;2022-08-19T04:46:51;23.20;99.90
18266;DHT22;9259;48.194;16.322;2022-08-19T04:49:21;23.40;99.90
18266;DHT22;9259;48.194;16.322;2022-08-19T04:51:51;23.60;99.90
18266;DHT22;9259;48.194;16.322;2022-08-19T04:54:23;23.60;99.90
18266;DHT22;9259;48.194;16.322;2022-08-19T04:56:55;23.60;99.90
18266;DHT22;9259;48.194;16.322;2022-08-19T04:59:24;23.70;99.90
18266;DHT22;9259;48.194;16.322;2022-08-19T05:01:52;23.70;99.90
18266;DHT22;9259;48.194;16.322;2022-08-19T05:04:20;23.70;99.90
18266;DHT22;9259;48.194;16.322;2022-08-19T05:06:48;23.70;99.90
18266;DHT22;9259;48.194;16.322;2022-08-19T05:09:17;23.60;99.90
18266;DHT22;9259;48.194;16.322;2022-08-19T05:11:47;23.70;99.90
18266;DHT22;9259;48.194;16.322;2022-08-19T05:14:19;23.70;99.90
18266;DHT22;9259;48.194;16.322;2022-08-19T05:16:48;23.60;99.90
18266;DHT22;9259;48.194;16.322;2022-08-19T05:19:16;23.60;99.90
18266;DHT22;9259;48.194;16.322;2022-08-19T05:22:01;23.50;99.90
18266;DHT22;9259;48.194;16.322;2022-08-19T05:24:47;23.50;99.90
18266;DHT22;9259;48.194;16.322;2022-08-19T05:27:15;23.30;99.90
18266;DHT22;9259;48.194;16.322;2022-08-19T05:29:43;23.20;99.90
18266;DHT22;9259;48.194;16.322;2022-08-19T05:32:12;23.20;99.90
18266;DHT22;9259;48.194;16.322;2022-08-19T05:34:43;23.20;99.90
18266;DHT22;9259;48.194;16.322;2022-08-19T05:37:11;23.10;99.90
18266;DHT22;9259;48.194;16.322;2022-08-19T05:42:09;23.00;99.90
18266;DHT22;9259;48.194;16.322;2022-08-19T05:44:41;22.90;99.90
18266;DHT22;9259;48.194;16.322;2022-08-19T05:47:12;22.80;99.90
18266;DHT22;9259;48.194;16.322;2022-08-19T05:49:42;22.80;99.90
